»·PEaware :: N707CP KSBP-KSBA

N707CP :: KSBP-KSBA

FLIGHT INFORMATION

Flight Status: Arrived
Operator: Privately registered:
United States
More flights under this callsign
Pilot: Chase Wakefield (8260)
Aircraft: CESSNA 172 SKYHAWK
(C172)
More flights by this aircraft type
Origin: KSBP San Luis Co Regl
United States
Destination: KSBA Santa Barbara Mun
United States
More flights between these airports :: More routes between these airports
Route: KSMX
File this flight plan on PilotEdge
Remarks: Stop and go at KSMX
Altitude:
(Current/Filed)
3,500ft
Speed:
(Current/Filed)
105kts
Departed: 09-Jun-17 12:30 PM
Arrived: 09-Jun-17 01:23 PM
Distance/Time
Traveled:
63nm/0:53
Distance/Time
To Go:
Arrived

Flight Plot

Page will automatically refresh every two minutes.

Flight plan parsing failed; only flown route is shown


Map Options




Map Legend


Flown Route
Filed Route
Departure Airport
Arrival Airport
Navaid (VOR, NDB)
Fix

Horizontal Profiles

Position Reports

Time Latitude Longitude Heading Altitude Ground
Speed
09-Jun-17 12:23 35.238116 -120.637353 270 215ft 0kts
09-Jun-17 12:24 35.238116 -120.637353 270 215ft 0kts
09-Jun-17 12:25 35.238116 -120.637353 270 215ft 0kts
09-Jun-17 12:26 35.238116 -120.637353 269 215ft 0kts
09-Jun-17 12:27 35.238116 -120.637353 269 215ft 0kts
09-Jun-17 12:28 35.238116 -120.637353 269 215ft 0kts
09-Jun-17 12:29 35.237815 -120.637995 235 215ft 9kts
09-Jun-17 12:30 35.236140 -120.636762 124 215ft 18kts
09-Jun-17 12:31 35.233235 -120.632105 207 215ft 0kts
09-Jun-17 12:32 35.234098 -120.635058 303 215ft 63kts
09-Jun-17 12:33 35.242747 -120.660733 205 1085ft 91kts
09-Jun-17 12:34 35.219275 -120.657328 154 2054ft 93kts
09-Jun-17 12:35 35.197287 -120.643479 151 3034ft 88kts
09-Jun-17 12:36 35.172145 -120.627633 152 3481ft 120kts
09-Jun-17 12:37 35.143816 -120.609928 152 3459ft 110kts
09-Jun-17 12:38 35.116130 -120.594006 155 3457ft 111kts
09-Jun-17 12:39 35.088967 -120.576269 151 3460ft 110kts
09-Jun-17 12:40 35.061910 -120.558934 152 3459ft 102kts
09-Jun-17 12:41 35.037577 -120.543667 154 3439ft 107kts
09-Jun-17 12:42 35.009101 -120.527438 154 3362ft 116kts
09-Jun-17 12:43 34.979259 -120.510397 154 2636ft 118kts
09-Jun-17 12:44 34.951033 -120.491615 142 1873ft 115kts
09-Jun-17 12:45 34.927384 -120.468957 140 1284ft 99kts
09-Jun-17 12:46 34.908157 -120.448797 138 994ft 86kts
09-Jun-17 12:47 34.892272 -120.432064 157 886ft 69kts
09-Jun-17 12:48 34.894505 -120.447852 315 275ft 57kts
09-Jun-17 12:49 34.898061 -120.449949 37 265ft 0kts
09-Jun-17 12:50 34.898061 -120.449949 37 265ft 0kts
09-Jun-17 12:51 34.898115 -120.449807 90 265ft 4kts
09-Jun-17 12:52 34.895891 -120.446991 134 265ft 19kts
09-Jun-17 12:53 34.893311 -120.444954 178 265ft 0kts
09-Jun-17 12:54 34.893416 -120.446533 316 265ft 46kts
09-Jun-17 12:55 34.912209 -120.456309 64 1038ft 99kts
09-Jun-17 12:56 34.893516 -120.440622 135 2188ft 87kts
09-Jun-17 12:57 34.876524 -120.419976 133 3226ft 86kts
09-Jun-17 12:58 34.855903 -120.393990 133 3448ft 121kts
09-Jun-17 12:59 34.833324 -120.365108 133 3459ft 117kts
09-Jun-17 13:00 34.814881 -120.341382 133 3458ft 114kts
09-Jun-17 13:01 34.793266 -120.313535 133 3471ft 113kts
09-Jun-17 13:02 34.771622 -120.285658 133 3455ft 104kts
09-Jun-17 13:03 34.749179 -120.265139 160 3461ft 105kts
09-Jun-17 13:04 34.721230 -120.252729 160 3485ft 108kts
09-Jun-17 13:05 34.692361 -120.240669 164 3505ft 108kts
09-Jun-17 13:06 34.661686 -120.237970 175 3549ft 115kts
09-Jun-17 13:07 34.628936 -120.234676 175 3421ft 116kts
09-Jun-17 13:08 34.597160 -120.232101 176 3430ft 113kts
09-Jun-17 13:09 34.565271 -120.230044 177 3464ft 115kts
09-Jun-17 13:10 34.534180 -120.229893 179 3435ft 111kts
09-Jun-17 13:11 34.506075 -120.220263 157 3458ft 103kts
09-Jun-17 13:12 34.485474 -120.197397 119 3471ft 109kts
09-Jun-17 13:13 34.471908 -120.164983 103 3462ft 106kts
09-Jun-17 13:14 34.463940 -120.130681 105 3516ft 108kts
09-Jun-17 13:15 34.456276 -120.095197 97 3510ft 108kts
09-Jun-17 13:16 34.451686 -120.058504 98 3459ft 108kts
09-Jun-17 13:17 34.444392 -120.021144 104 3099ft 121kts
09-Jun-17 13:18 34.435870 -119.981381 104 2604ft 123kts
09-Jun-17 13:19 34.427732 -119.943439 104 2130ft 108kts
09-Jun-17 13:20 34.421550 -119.907669 91 1449ft 104kts
09-Jun-17 13:21 34.421353 -119.876228 90 929ft 90kts
09-Jun-17 13:22 34.420021 -119.845027 88 891ft 95kts
09-Jun-17 13:23 34.422054 -119.821348 3 445ft 65kts
09-Jun-17 13:24 34.427596 -119.837537 268 23ft 58kts
09-Jun-17 13:25 34.426512 -119.841445 167 17ft 0kts
09-Jun-17 13:26 34.425522 -119.838084 165 17ft 22kts
09-Jun-17 13:27 34.422775 -119.836857 75 17ft 3kts

Navigation Log

Ident Type
Flight plan parsing failed, navigation log unavailable